Time;durP1;ratioP1;P1;durP2;ratioP2;P2;SDS_P1;SDS_P2;PMS_P1;PMS_P2;Temp;Humidity;BMP_temperature;BMP_pressure;BME280_temperature;BME280_humidity;BME280_pressure;Samples;Min_cycle;Max_cycle;Signal;HPM_P1;HPM_P2
2022/06/25 00:00:28;;;;;;;3.03;1.42;;;20.80;99.90;;;;;;5062786;28;20037;-82
2022/06/25 00:02:54;;;;;;;2.67;0.90;;;20.80;99.90;;;;;;5063870;28;20048;-83
2022/06/25 00:05:28;;;;;;;2.10;1.08;;;20.70;99.90;;;;;;5064599;28;20971;-83
2022/06/25 00:07:56;;;;;;;1.67;0.98;;;20.80;99.90;;;;;;5060182;28;20259;-82
2022/06/25 00:10:22;;;;;;;2.50;1.00;;;20.80;99.90;;;;;;5062288;28;20049;-83
2022/06/25 00:12:48;;;;;;;2.78;1.10;;;20.80;99.90;;;;;;5063261;28;20411;-81
2022/06/25 00:15:14;;;;;;;2.22;1.00;;;20.90;99.90;;;;;;5062574;28;20045;-81
2022/06/25 00:17:40;;;;;;;1.92;1.45;;;20.90;99.90;;;;;;5062413;28;20045;-83
2022/06/25 00:20:08;;;;;;;3.75;1.15;;;20.70;99.90;;;;;;5062988;28;20095;-83
2022/06/25 00:22:34;;;;;;;2.15;0.95;;;20.80;99.90;;;;;;5062242;28;20132;-84
2022/06/25 00:25:00;;;;;;;2.80;0.90;;;20.70;99.90;;;;;;5061853;28;20471;-83
2022/06/25 00:27:26;;;;;;;3.50;0.95;;;20.70;99.90;;;;;;5064171;28;20041;-83
2022/06/25 00:29:51;;;;;;;4.03;1.80;;;20.60;99.90;;;;;;5060046;28;20507;-83
2022/06/25 00:32:17;;;;;;;1.95;0.90;;;20.60;99.90;;;;;;5059370;28;20048;-81
2022/06/25 00:34:43;;;;;;;1.02;0.70;;;20.60;99.90;;;;;;5063213;28;20041;-82
2022/06/25 00:37:09;;;;;;;3.85;1.00;;;20.60;99.90;;;;;;5060021;28;20132;-82
2022/06/25 00:39:36;;;;;;;4.43;1.92;;;20.60;99.90;;;;;;5061110;28;20071;-82
2022/06/25 00:42:07;;;;;;;1.88;0.80;;;20.60;99.90;;;;;;5061601;28;21323;-82
2022/06/25 00:44:33;;;;;;;2.40;1.02;;;20.60;99.90;;;;;;5061181;28;20137;-83
2022/06/25 00:46:59;;;;;;;2.80;2.20;;;20.50;99.90;;;;;;5060583;28;20144;-84
2022/06/25 00:49:25;;;;;;;3.75;1.15;;;20.40;99.90;;;;;;5061132;28;20040;-83
2022/06/25 00:51:51;;;;;;;3.13;1.90;;;20.40;99.90;;;;;;5076532;28;20037;-82
2022/06/25 00:54:19;;;;;;;1.88;0.90;;;20.40;99.90;;;;;;5059336;28;20044;-82
2022/06/25 00:56:49;;;;;;;4.22;1.10;;;20.40;99.90;;;;;;5060242;28;20037;-82
2022/06/25 00:59:17;;;;;;;1.58;1.40;;;20.40;99.90;;;;;;5059517;28;20061;-83
2022/06/25 01:01:43;;;;;;;4.28;1.20;;;20.40;99.90;;;;;;5045409;28;20037;-83
2022/06/25 01:04:09;;;;;;;3.00;1.05;;;20.40;99.90;;;;;;5060965;28;20473;-83
2022/06/25 01:06:35;;;;;;;4.75;1.08;;;20.30;99.90;;;;;;5061172;28;20124;-82
2022/06/25 01:09:01;;;;;;;1.33;0.80;;;20.30;99.90;;;;;;5043994;28;20683;-83
2022/06/25 01:11:27;;;;;;;1.40;0.82;;;20.10;99.90;;;;;;5064099;28;20048;-83
2022/06/25 01:13:53;;;;;;;1.23;1.08;;;20.00;99.90;;;;;;5063164;28;20118;-83
2022/06/25 01:16:21;;;;;;;1.58;0.88;;;20.00;99.90;;;;;;5061850;28;20071;-82
2022/06/25 01:18:47;;;;;;;0.85;0.45;;;19.90;99.90;;;;;;5060697;28;20067;-82
2022/06/25 01:21:13;;;;;;;1.98;1.17;;;19.90;99.90;;;;;;5060889;28;20033;-83
2022/06/25 01:23:40;;;;;;;1.00;0.93;;;19.90;99.90;;;;;;5062064;28;20053;-82
2022/06/25 01:26:06;;;;;;;1.95;0.70;;;19.90;99.90;;;;;;5064229;28;20039;-82
2022/06/25 01:28:32;;;;;;;3.50;0.90;;;20.00;99.90;;;;;;5063709;28;20076;-82
2022/06/25 01:30:58;;;;;;;5.20;0.85;;;20.00;99.90;;;;;;5062018;28;20119;-82
2022/06/25 01:33:23;;;;;;;3.53;0.90;;;19.90;99.90;;;;;;5061802;28;20099;-84
2022/06/25 01:35:49;;;;;;;2.88;0.90;;;19.90;99.90;;;;;;5062844;28;20041;-83
2022/06/25 01:38:15;;;;;;;1.48;0.90;;;20.00;99.90;;;;;;5046990;28;20636;-83
2022/06/25 01:40:41;;;;;;;0.55;0.50;;;19.90;99.90;;;;;;5062888;28;20059;-83
2022/06/25 01:43:07;;;;;;;3.38;1.10;;;19.90;99.90;;;;;;5061556;28;20061;-82
2022/06/25 01:45:36;;;;;;;1.17;0.70;;;19.90;99.90;;;;;;5063511;28;20123;-82
2022/06/25 01:48:03;;;;;;;1.65;0.80;;;19.90;99.90;;;;;;5059559;28;20048;-82
2022/06/25 01:50:30;;;;;;;1.88;0.88;;;19.90;99.90;;;;;;5060373;28;20037;-83
2022/06/25 01:52:56;;;;;;;1.27;0.90;;;19.90;99.90;;;;;;5063405;28;20080;-83
2022/06/25 01:55:22;;;;;;;1.00;0.80;;;20.00;99.90;;;;;;5061472;28;20147;-83
2022/06/25 01:57:49;;;;;;;1.05;0.75;;;19.90;99.90;;;;;;5046254;28;20044;-82
2022/06/25 02:00:24;;;;;;;1.33;0.70;;;19.90;99.90;;;;;;5060538;28;20548;-82
2022/06/25 02:02:51;;;;;;;3.17;0.85;;;19.90;99.90;;;;;;5063408;28;20099;-83
2022/06/25 02:05:56;;;;;;;2.08;0.90;;;19.90;99.90;;;;;;5061418;28;20044;-83
2022/06/25 02:08:05;;;;;;;2.33;0.77;;;20.00;99.90;;;;;;5062899;28;20052;-83
2022/06/25 02:10:30;;;;;;;1.13;0.57;;;19.90;99.90;;;;;;5062192;28;20033;-83
2022/06/25 02:12:56;;;;;;;1.05;0.80;;;19.90;99.90;;;;;;5057839;28;20609;-82
2022/06/25 02:15:22;;;;;;;1.35;0.50;;;19.90;99.90;;;;;;5060571;28;20098;-83
2022/06/25 02:17:47;;;;;;;1.00;0.73;;;19.90;99.90;;;;;;5060035;28;20059;-83
2022/06/25 02:20:13;;;;;;;1.60;0.80;;;19.80;99.90;;;;;;5062195;28;20041;-83
2022/06/25 02:22:39;;;;;;;1.38;0.70;;;19.80;99.90;;;;;;5044017;28;20098;-83
2022/06/25 02:25:05;;;;;;;3.30;1.20;;;19.80;99.90;;;;;;5060665;28;20107;-83
2022/06/25 02:27:31;;;;;;;4.28;1.77;;;19.70;99.90;;;;;;5059927;28;20482;-82
2022/06/25 02:29:56;;;;;;;0.90;0.80;;;19.70;99.90;;;;;;5057343;28;20036;-83
2022/06/25 02:32:22;;;;;;;3.15;1.05;;;19.70;99.90;;;;;;5056804;28;20179;-82
2022/06/25 02:34:48;;;;;;;1.48;0.85;;;19.70;99.90;;;;;;5060061;28;20037;-83
2022/06/25 02:37:14;;;;;;;1.30;0.77;;;19.60;99.90;;;;;;5061973;28;20029;-83
2022/06/25 02:39:39;;;;;;;3.65;2.58;;;19.60;99.90;;;;;;5058147;28;20044;-83
2022/06/25 02:42:05;;;;;;;4.20;1.67;;;19.60;99.90;;;;;;5061099;28;20056;-83
2022/06/25 02:44:31;;;;;;;1.13;0.70;;;19.60;99.90;;;;;;5059872;28;20522;-81
2022/06/25 02:46:56;;;;;;;1.27;0.82;;;19.60;99.90;;;;;;5057840;28;20419;-82
2022/06/25 02:49:22;;;;;;;2.28;0.80;;;19.70;99.90;;;;;;5058458;28;20169;-81
2022/06/25 02:51:48;;;;;;;1.65;0.88;;;19.50;99.90;;;;;;5075964;28;20131;-83
2022/06/25 02:54:14;;;;;;;1.60;0.80;;;19.50;99.90;;;;;;5058995;28;20510;-83
2022/06/25 02:59:24;;;;;;;2.70;1.10;;;19.50;99.90;;;;;;5057753;28;20447;-83
2022/06/25 03:01:50;;;;;;;2.08;1.30;;;19.40;99.90;;;;;;5058700;28;20040;-82
2022/06/25 03:04:16;;;;;;;1.73;0.90;;;19.40;99.90;;;;;;5059143;28;20662;-82
2022/06/25 03:06:42;;;;;;;3.30;1.08;;;19.40;99.90;;;;;;5060393;28;20109;-82
2022/06/25 03:09:08;;;;;;;2.15;1.05;;;19.40;99.90;;;;;;5062193;28;20079;-82
2022/06/25 03:11:34;;;;;;;2.90;1.50;;;19.40;99.90;;;;;;5062802;28;21369;-83
2022/06/25 03:14:00;;;;;;;3.45;1.10;;;19.40;99.90;;;;;;5063822;28;20040;-81
2022/06/25 03:16:26;;;;;;;2.90;1.40;;;19.40;99.90;;;;;;5061289;28;20110;-82
2022/06/25 03:18:51;;;;;;;2.13;0.95;;;19.30;99.90;;;;;;5061696;28;20937;-82
2022/06/25 03:21:17;;;;;;;12.60;3.03;;;19.40;99.90;;;;;;5077058;28;20127;-83
2022/06/25 03:23:43;;;;;;;2.75;0.82;;;19.20;99.90;;;;;;5064478;28;20122;-81
2022/06/25 03:26:09;;;;;;;4.38;1.67;;;19.30;99.90;;;;;;5063252;28;20387;-82
2022/06/25 03:28:36;;;;;;;2.40;0.90;;;19.20;99.90;;;;;;5062305;28;20978;-83
2022/06/25 03:31:02;;;;;;;4.45;1.30;;;19.30;99.90;;;;;;5060512;28;20099;-83
2022/06/25 03:33:28;;;;;;;7.03;1.40;;;19.20;99.90;;;;;;5061844;28;20576;-83
2022/06/25 03:35:53;;;;;;;4.57;1.42;;;19.20;99.90;;;;;;5061918;28;20440;-82
2022/06/25 03:38:19;;;;;;;2.55;1.50;;;19.10;99.90;;;;;;5063583;28;20044;-82
2022/06/25 03:40:45;;;;;;;2.88;1.10;;;19.20;99.90;;;;;;5063122;28;20473;-83
2022/06/25 03:43:11;;;;;;;1.63;1.10;;;19.20;99.90;;;;;;5062584;28;20067;-83
2022/06/25 03:45:38;;;;;;;3.72;1.23;;;19.30;99.90;;;;;;5063765;28;20051;-84
2022/06/25 03:48:04;;;;;;;1.30;0.90;;;19.20;99.90;;;;;;5062426;28;20040;-82
2022/06/25 03:50:30;;;;;;;2.10;1.30;;;19.20;99.90;;;;;;5059240;28;20629;-82
2022/06/25 03:52:56;;;;;;;8.88;1.88;;;19.20;99.90;;;;;;5061005;28;20040;-82
2022/06/25 03:55:22;;;;;;;1.70;0.95;;;19.30;99.90;;;;;;5061419;28;20063;-82
2022/06/25 03:57:48;;;;;;;3.63;1.10;;;19.20;99.90;;;;;;5059443;28;20041;-83
2022/06/25 04:00:15;;;;;;;1.48;1.00;;;19.30;99.90;;;;;;5060264;28;20037;-81
2022/06/25 04:02:40;;;;;;;1.65;0.88;;;19.30;99.90;;;;;;5062953;28;20523;-82
2022/06/25 04:05:06;;;;;;;2.63;0.90;;;19.20;99.90;;;;;;5060630;28;20095;-82
2022/06/25 04:07:32;;;;;;;6.43;2.00;;;19.20;99.90;;;;;;5059004;28;20076;-81
2022/06/25 04:09:58;;;;;;;2.67;1.20;;;19.20;99.90;;;;;;5061974;28;20090;-83
2022/06/25 04:12:24;;;;;;;2.88;1.00;;;19.20;99.90;;;;;;5063993;28;20041;-83
2022/06/25 04:14:49;;;;;;;2.88;1.20;;;19.10;99.90;;;;;;5059716;28;20562;-82
2022/06/25 04:17:15;;;;;;;2.65;1.08;;;19.10;99.90;;;;;;5062188;28;20036;-82
2022/06/25 04:19:41;;;;;;;5.60;2.08;;;19.10;99.90;;;;;;5061457;28;20052;-82
2022/06/25 04:22:11;;;;;;;3.58;1.08;;;19.10;99.90;;;;;;5060857;28;20644;-82
2022/06/25 04:24:38;;;;;;;2.55;1.10;;;19.10;99.90;;;;;;5061356;28;20037;-83
2022/06/25 04:27:05;;;;;;;2.95;1.23;;;19.00;99.90;;;;;;5062195;28;20037;-83
2022/06/25 04:29:31;;;;;;;4.85;1.35;;;19.10;99.90;;;;;;5062868;28;20045;-83
2022/06/25 04:31:57;;;;;;;2.00;1.30;;;19.10;99.90;;;;;;5059235;28;20037;-82
2022/06/25 04:34:24;;;;;;;3.40;1.52;;;19.10;99.90;;;;;;5063489;28;20147;-82
2022/06/25 04:36:50;;;;;;;2.85;1.50;;;19.10;99.90;;;;;;5063183;28;20065;-82
2022/06/25 04:39:16;;;;;;;2.33;2.05;;;19.10;99.90;;;;;;5060634;28;20049;-82
2022/06/25 04:41:42;;;;;;;4.68;1.33;;;19.10;99.90;;;;;;5062727;28;20045;-82
2022/06/25 04:44:08;;;;;;;1.83;1.02;;;19.20;99.90;;;;;;5059949;28;20147;-82
2022/06/25 04:46:34;;;;;;;2.78;1.30;;;19.20;99.90;;;;;;5060435;28;20503;-82
2022/06/25 04:48:59;;;;;;;2.85;1.42;;;19.20;99.90;;;;;;5061267;28;20045;-81
2022/06/25 04:51:26;;;;;;;2.40;1.02;;;19.20;99.90;;;;;;5060542;28;20646;-82
2022/06/25 04:53:55;;;;;;;4.97;1.25;;;19.20;99.90;;;;;;5060189;28;20047;-82
2022/06/25 04:56:28;;;;;;;3.67;1.92;;;19.10;99.90;;;;;;5061469;28;20037;-82
2022/06/25 04:58:56;;;;;;;2.05;1.15;;;19.10;99.90;;;;;;5059351;28;20049;-82
2022/06/25 05:01:22;;;;;;;6.78;1.10;;;19.10;99.90;;;;;;5059197;28;20056;-82
2022/06/25 05:03:48;;;;;;;4.25;2.03;;;19.10;99.90;;;;;;5061732;28;20146;-82
2022/06/25 05:06:15;;;;;;;6.53;1.63;;;19.10;99.90;;;;;;5058993;28;20068;-83
2022/06/25 05:08:41;;;;;;;5.20;2.47;;;19.20;99.90;;;;;;5060778;28;20044;-84
2022/06/25 05:11:07;;;;;;;3.60;1.98;;;19.20;99.90;;;;;;5062576;28;20075;-84
2022/06/25 05:13:33;;;;;;;4.07;1.60;;;19.20;99.90;;;;;;5061555;28;20180;-84
2022/06/25 05:15:59;;;;;;;6.80;1.40;;;19.30;99.90;;;;;;5059373;28;20851;-83
2022/06/25 05:18:25;;;;;;;3.15;1.20;;;19.30;99.90;;;;;;5064208;28;20131;-81
2022/06/25 05:20:51;;;;;;;5.15;1.27;;;19.30;99.90;;;;;;5058586;28;21239;-82
2022/06/25 05:23:17;;;;;;;4.93;1.40;;;19.30;99.90;;;;;;5061016;28;20049;-83
2022/06/25 05:25:43;;;;;;;7.68;1.42;;;19.40;99.90;;;;;;5061494;28;20079;-82
2022/06/25 05:28:09;;;;;;;7.38;1.40;;;19.40;99.90;;;;;;5061272;28;20047;-83
2022/06/25 05:30:35;;;;;;;7.82;1.60;;;19.40;99.90;;;;;;5060595;28;20037;-83
2022/06/25 05:33:01;;;;;;;3.58;1.13;;;19.40;99.90;;;;;;5062628;28;20060;-84
2022/06/25 05:35:28;;;;;;;4.78;3.08;;;19.50;99.90;;;;;;5059660;28;20048;-83
2022/06/25 05:37:54;;;;;;;4.65;2.00;;;19.50;99.90;;;;;;5077244;28;20231;-83
2022/06/25 05:40:20;;;;;;;6.25;1.60;;;19.50;99.90;;;;;;5060815;28;20695;-82
2022/06/25 05:42:46;;;;;;;5.93;1.50;;;19.50;99.90;;;;;;5060277;28;21721;-82
2022/06/25 05:45:12;;;;;;;8.18;1.95;;;19.50;99.90;;;;;;5059091;28;20033;-83
2022/06/25 05:47:39;;;;;;;6.05;2.08;;;19.50;99.90;;;;;;5060897;28;20095;-82
2022/06/25 05:50:06;;;;;;;3.80;1.88;;;19.50;99.90;;;;;;5059582;28;20569;-83
2022/06/25 05:52:32;;;;;;;7.30;2.05;;;19.50;99.90;;;;;;5062066;28;20916;-82
2022/06/25 05:54:58;;;;;;;4.80;1.65;;;19.50;99.90;;;;;;5058746;28;20614;-83
2022/06/25 05:57:23;;;;;;;6.30;2.42;;;19.40;99.90;;;;;;5074880;28;20055;-83
2022/06/25 05:59:49;;;;;;;4.13;1.77;;;19.40;99.90;;;;;;5059674;28;20049;-83
2022/06/25 06:02:16;;;;;;;2.70;1.52;;;19.40;99.90;;;;;;5068526;28;20037;-83
2022/06/25 06:04:42;;;;;;;4.32;2.28;;;19.50;99.90;;;;;;5057466;28;20044;-84
2022/06/25 06:07:08;;;;;;;7.78;2.35;;;19.50;99.90;;;;;;5061368;28;20127;-83
2022/06/25 06:09:34;;;;;;;6.28;1.67;;;19.60;99.90;;;;;;5062422;28;20396;-82
2022/06/25 06:12:00;;;;;;;4.28;1.40;;;19.60;99.90;;;;;;5076376;27;20048;-82
2022/06/25 06:14:26;;;;;;;4.95;2.75;;;19.70;99.90;;;;;;5062370;28;20833;-82
2022/06/25 06:16:52;;;;;;;4.82;1.45;;;19.80;99.90;;;;;;5062268;28;20430;-82
2022/06/25 06:19:17;;;;;;;8.30;1.73;;;19.80;99.90;;;;;;5060907;28;20052;-82
2022/06/25 06:21:44;;;;;;;3.35;1.45;;;19.80;99.90;;;;;;5060814;28;20132;-82
2022/06/25 06:24:10;;;;;;;2.83;1.27;;;19.80;99.90;;;;;;5062014;28;20139;-82
2022/06/25 06:26:37;;;;;;;6.25;1.70;;;19.80;99.90;;;;;;5058947;28;20045;-82
2022/06/25 06:29:03;;;;;;;6.22;1.60;;;19.80;99.90;;;;;;5055890;28;20048;-82
2022/06/25 06:31:29;;;;;;;5.25;1.52;;;19.80;99.90;;;;;;5075022;28;20585;-82
2022/06/25 06:33:54;;;;;;;3.90;1.45;;;19.80;99.90;;;;;;5062528;28;21981;-81
2022/06/25 06:36:20;;;;;;;9.43;2.35;;;19.80;99.90;;;;;;5062337;28;20526;-83
2022/06/25 06:38:46;;;;;;;5.95;1.85;;;19.80;99.90;;;;;;5062206;28;20041;-82
2022/06/25 06:41:17;;;;;;;13.50;3.17;;;19.80;99.90;;;;;;5063981;28;20120;-82
2022/06/25 06:43:44;;;;;;;5.47;1.73;;;19.90;99.90;;;;;;5076121;28;20060;-82
2022/06/25 06:46:10;;;;;;;9.25;2.10;;;20.00;99.90;;;;;;5062114;28;20128;-86
2022/06/25 06:48:35;;;;;;;4.07;2.22;;;20.00;99.90;;;;;;5061942;28;20045;-82
2022/06/25 06:51:01;;;;;;;9.07;2.20;;;20.00;99.90;;;;;;5064161;28;20041;-82
2022/06/25 06:53:27;;;;;;;7.45;1.50;;;20.00;99.90;;;;;;5060994;28;20131;-82
2022/06/25 06:55:53;;;;;;;9.70;3.03;;;20.00;99.90;;;;;;5065047;28;20608;-82
2022/06/25 06:58:19;;;;;;;4.32;1.75;;;20.10;99.90;;;;;;5078789;28;20094;-81
2022/06/25 07:00:44;;;;;;;4.15;1.50;;;20.20;99.90;;;;;;5064127;28;20043;-82
2022/06/25 07:03:10;;;;;;;4.20;1.70;;;20.20;99.90;;;;;;5062943;28;20040;-82
2022/06/25 07:05:36;;;;;;;6.70;1.92;;;20.40;99.90;;;;;;5077198;28;20530;-82
2022/06/25 07:08:02;;;;;;;5.93;2.45;;;20.60;99.90;;;;;;5063630;28;20092;-82
2022/06/25 07:10:28;;;;;;;6.63;1.73;;;20.70;99.90;;;;;;5064798;28;20560;-82
2022/06/25 07:12:54;;;;;;;7.97;1.65;;;20.60;99.90;;;;;;5059888;28;20087;-82
2022/06/25 07:15:20;;;;;;;5.20;1.40;;;20.60;99.90;;;;;;5063358;28;20323;-82
2022/06/25 07:17:45;;;;;;;8.23;2.90;;;20.50;99.90;;;;;;5061084;28;20124;-82
2022/06/25 07:20:11;;;;;;;5.10;1.55;;;20.40;99.90;;;;;;5061249;28;20413;-82
2022/06/25 07:22:37;;;;;;;6.97;1.75;;;20.40;99.90;;;;;;5063094;28;20052;-82
2022/06/25 07:25:04;;;;;;;5.28;1.77;;;20.30;99.90;;;;;;5064641;28;20045;-83
2022/06/25 07:27:30;;;;;;;6.32;1.90;;;20.30;99.90;;;;;;5061508;28;20040;-82
2022/06/25 07:29:56;;;;;;;4.85;2.05;;;20.20;99.90;;;;;;5075633;28;20060;-81
2022/06/25 07:32:22;;;;;;;6.05;2.08;;;20.20;99.90;;;;;;5062907;28;20044;-82
2022/06/25 07:34:47;;;;;;;3.88;1.73;;;20.30;99.90;;;;;;5061460;28;20515;-82
2022/06/25 07:37:14;;;;;;;3.75;2.45;;;20.30;99.90;;;;;;5063427;28;20122;-83
2022/06/25 07:39:39;;;;;;;7.95;1.63;;;20.40;99.90;;;;;;5066512;28;20552;-81
2022/06/25 07:42:05;;;;;;;4.18;1.50;;;20.30;99.90;;;;;;5065148;28;20048;-82
2022/06/25 07:44:31;;;;;;;4.28;1.88;;;20.40;99.90;;;;;;5065272;28;20522;-83
2022/06/25 07:46:57;;;;;;;7.22;2.03;;;20.40;99.90;;;;;;5063169;28;20072;-82
2022/06/25 07:49:22;;;;;;;6.47;2.17;;;20.50;99.90;;;;;;5055098;28;20041;-82
2022/06/25 07:51:57;;;;;;;4.95;2.15;;;20.60;99.90;;;;;;5058810;28;20033;-85
2022/06/25 07:54:30;;;;;;;4.20;1.90;;;20.60;99.90;;;;;;5061030;28;20051;-81
2022/06/25 07:56:57;;;;;;;6.95;1.60;;;20.70;99.90;;;;;;5059607;28;20097;-83
2022/06/25 07:59:23;;;;;;;8.63;1.67;;;20.70;99.90;;;;;;5065167;28;20064;-84
2022/06/25 08:01:49;;;;;;;6.07;2.03;;;20.70;99.90;;;;;;5064661;28;20078;-82
2022/06/25 08:04:16;;;;;;;8.93;1.73;;;20.70;99.90;;;;;;5062444;28;20549;-83
2022/06/25 08:06:43;;;;;;;15.95;3.13;;;20.60;99.90;;;;;;5061489;28;20048;-83
2022/06/25 08:09:09;;;;;;;6.43;1.70;;;20.60;99.90;;;;;;5064447;28;20036;-86
2022/06/25 08:11:35;;;;;;;6.78;1.77;;;20.60;99.90;;;;;;5061128;28;20564;-83
2022/06/25 08:14:01;;;;;;;5.07;1.65;;;20.60;99.90;;;;;;5064104;28;20106;-84
2022/06/25 08:16:27;;;;;;;7.80;2.45;;;20.60;99.90;;;;;;5063433;28;20088;-86
2022/06/25 08:18:53;;;;;;;10.00;2.35;;;20.70;99.90;;;;;;5062440;28;20912;-85
2022/06/25 08:21:19;;;;;;;6.93;2.10;;;20.70;99.90;;;;;;5055057;28;20051;-85
2022/06/25 08:23:45;;;;;;;3.72;1.42;;;20.80;99.90;;;;;;5062467;28;20048;-85
2022/06/25 08:26:10;;;;;;;5.47;1.73;;;20.80;99.90;;;;;;5059296;28;20060;-86
2022/06/25 08:28:36;;;;;;;5.88;2.92;;;20.70;99.90;;;;;;5062683;28;20159;-86
2022/06/25 08:31:03;;;;;;;7.55;1.70;;;20.70;99.90;;;;;;5060829;28;20128;-85
2022/06/25 08:33:29;;;;;;;4.43;1.60;;;20.60;99.90;;;;;;5062387;28;20048;-85
2022/06/25 08:35:56;;;;;;;5.70;2.28;;;20.60;99.90;;;;;;5064268;28;20071;-85
2022/06/25 08:38:22;;;;;;;7.18;2.42;;;20.60;99.90;;;;;;5063397;28;20072;-85
2022/06/25 08:40:48;;;;;;;6.57;2.10;;;20.70;99.90;;;;;;5061884;28;20048;-85
2022/06/25 08:43:14;;;;;;;3.95;1.83;;;20.70;99.90;;;;;;5062079;28;20075;-85
2022/06/25 08:45:40;;;;;;;6.00;1.73;;;20.70;99.90;;;;;;5058317;28;20036;-86
2022/06/25 08:48:20;;;;;;;7.13;2.08;;;20.70;99.90;;;;;;5060258;28;20096;-86
2022/06/25 08:50:48;;;;;;;4.55;2.35;;;20.80;99.90;;;;;;5059956;28;20040;-85
2022/06/25 08:53:15;;;;;;;3.70;1.92;;;20.70;99.90;;;;;;5062309;28;20048;-85
2022/06/25 08:55:44;;;;;;;3.28;1.60;;;20.70;99.90;;;;;;5058966;28;20044;-87
2022/06/25 08:58:10;;;;;;;5.22;2.55;;;20.70;99.90;;;;;;5062260;28;20140;-86
2022/06/25 09:00:39;;;;;;;4.15;1.58;;;20.80;99.90;;;;;;5058243;28;20456;-86
2022/06/25 09:03:06;;;;;;;4.75;1.83;;;20.90;99.90;;;;;;5061474;28;20849;-86
2022/06/25 09:05:34;;;;;;;3.78;1.55;;;20.90;99.90;;;;;;5057457;28;20045;-86
2022/06/25 09:08:05;;;;;;;4.93;2.65;;;20.90;99.90;;;;;;5063052;28;20100;-89
2022/06/25 09:10:31;;;;;;;10.82;2.50;;;20.90;99.90;;;;;;5064074;28;20068;-88
2022/06/25 09:12:59;;;;;;;4.43;1.52;;;20.90;99.90;;;;;;5062828;28;20075;-87
2022/06/25 09:15:28;;;;;;;6.10;1.73;;;20.90;99.90;;;;;;5064066;28;20550;-87
2022/06/25 09:17:54;;;;;;;5.95;1.98;;;21.00;99.90;;;;;;5064986;28;20043;-87
2022/06/25 09:20:21;;;;;;;6.00;1.70;;;21.00;99.90;;;;;;5059003;28;20040;-86
2022/06/25 09:23:03;;;;;;;5.65;2.20;;;21.10;99.90;;;;;;5062130;28;20663;-86
2022/06/25 09:25:30;;;;;;;3.78;1.63;;;21.10;99.90;;;;;;5061057;28;20036;-86
2022/06/25 09:27:59;;;;;;;5.75;2.10;;;21.20;99.90;;;;;;5059565;28;20047;-86
2022/06/25 09:30:28;;;;;;;4.10;1.58;;;21.30;99.90;;;;;;5064327;28;20094;-86
2022/06/25 09:33:02;;;;;;;6.80;1.65;;;21.40;99.90;;;;;;5063492;28;20679;-87
2022/06/25 09:35:33;;;;;;;4.78;2.33;;;21.60;99.90;;;;;;5063539;28;20067;-86
2022/06/25 09:38:07;;;;;;;4.45;1.90;;;21.70;99.90;;;;;;5079943;28;20032;-86
2022/06/25 09:40:34;;;;;;;6.20;2.05;;;21.90;99.90;;;;;;5080518;28;20067;-86
2022/06/25 09:43:19;;;;;;;7.53;2.42;;;22.00;99.90;;;;;;5065148;28;20049;-87
2022/06/25 09:45:47;;;;;;;6.43;2.03;;;22.10;99.90;;;;;;5066207;28;20037;-87
2022/06/25 09:48:22;;;;;;;3.35;1.60;;;22.10;99.90;;;;;;5064968;28;20048;-86
2022/06/25 09:51:13;;;;;;;3.05;1.55;;;22.10;99.90;;;;;;5062120;28;20040;-86
2022/06/25 09:53:53;;;;;;;2.97;1.55;;;22.10;99.90;;;;;;5063775;28;20041;-86
2022/06/25 09:56:22;;;;;;;3.72;1.50;;;22.00;99.90;;;;;;5062246;28;20049;-86
2022/06/25 09:58:48;;;;;;;7.05;2.15;;;22.10;99.90;;;;;;5061387;28;20072;-86
2022/06/25 10:01:16;;;;;;;2.83;1.30;;;22.10;99.90;;;;;;5063492;28;20044;-86
2022/06/25 10:03:43;;;;;;;3.83;1.52;;;22.10;99.90;;;;;;5062596;28;20116;-86
2022/06/25 10:06:09;;;;;;;6.50;1.77;;;22.10;99.90;;;;;;5061665;28;20075;-86
2022/06/25 10:08:35;;;;;;;5.18;1.67;;;22.10;99.90;;;;;;5064213;28;20075;-86
2022/06/25 10:11:04;;;;;;;4.32;1.60;;;22.10;99.90;;;;;;5063134;28;20098;-86
2022/06/25 10:13:30;;;;;;;2.03;1.48;;;22.00;99.90;;;;;;5047590;28;20529;-86
2022/06/25 10:15:56;;;;;;;11.38;2.22;;;22.00;99.90;;;;;;5062904;28;20037;-86
2022/06/25 10:18:24;;;;;;;5.30;1.75;;;22.00;99.90;;;;;;5061865;28;20058;-86
2022/06/25 10:20:51;;;;;;;3.65;2.50;;;22.00;99.90;;;;;;5064940;28;21263;-86
2022/06/25 10:23:20;;;;;;;7.45;2.17;;;22.10;99.90;;;;;;5062462;28;20614;-86
2022/06/25 10:25:47;;;;;;;4.38;1.45;;;22.10;99.90;;;;;;5064198;28;20094;-86
2022/06/25 10:28:15;;;;;;;6.32;1.95;;;22.20;99.90;;;;;;5061488;28;20037;-86
2022/06/25 10:30:51;;;;;;;6.85;2.35;;;22.20;99.90;;;;;;5062088;28;20083;-86
2022/06/25 10:33:22;;;;;;;3.58;1.67;;;22.20;99.90;;;;;;5060965;28;20527;-86
2022/06/25 10:35:49;;;;;;;3.88;1.50;;;22.20;99.90;;;;;;5060104;28;20037;-86
2022/06/25 10:38:26;;;;;;;3.92;1.60;;;22.30;99.90;;;;;;5061001;28;20091;-86
2022/06/25 10:40:57;;;;;;;3.28;1.40;;;22.40;99.90;;;;;;5046017;28;20045;-86
2022/06/25 10:43:35;;;;;;;6.50;2.38;;;22.40;99.90;;;;;;5062710;28;20053;-86
2022/06/25 10:46:21;;;;;;;4.57;1.40;;;22.50;99.90;;;;;;5062095;28;20128;-86
2022/06/25 10:48:57;;;;;;;6.13;1.50;;;22.50;99.90;;;;;;5062500;28;20043;-86
2022/06/25 10:51:29;;;;;;;3.13;1.55;;;22.40;99.90;;;;;;5079888;28;20518;-86
2022/06/25 10:53:55;;;;;;;5.55;1.50;;;22.30;99.90;;;;;;5077583;28;20041;-86
2022/06/25 10:56:21;;;;;;;4.93;1.70;;;22.20;99.90;;;;;;5062289;28;20530;-86
2022/06/25 10:58:48;;;;;;;3.33;1.25;;;22.10;99.90;;;;;;5061306;28;20132;-86
2022/06/25 11:01:27;;;;;;;4.88;1.60;;;22.10;99.90;;;;;;5064431;28;20518;-86
2022/06/25 11:03:58;;;;;;;3.40;1.38;;;22.00;99.90;;;;;;5062448;28;20052;-86
2022/06/25 11:06:39;;;;;;;2.13;1.33;;;21.90;99.90;;;;;;5060587;28;21047;-92
2022/06/25 11:09:06;;;;;;;3.33;1.38;;;21.80;99.90;;;;;;5064421;28;20479;-92
2022/06/25 11:11:33;;;;;;;3.17;1.30;;;21.70;99.90;;;;;;5062096;28;21069;-86
2022/06/25 11:14:01;;;;;;;1.63;1.30;;;21.70;99.90;;;;;;5044757;28;20072;-87
2022/06/25 11:16:27;;;;;;;4.65;1.30;;;21.60;99.90;;;;;;5058362;28;20403;-83
2022/06/25 11:18:58;;;;;;;3.70;2.38;;;21.70;99.90;;;;;;5073818;28;20041;-83
2022/06/25 11:21:26;;;;;;;2.83;1.35;;;21.70;99.90;;;;;;5075573;28;20580;-84
2022/06/25 11:23:52;;;;;;;5.53;1.05;;;21.80;99.90;;;;;;5058211;28;20073;-83
2022/06/25 11:29:02;;;;;;;3.97;2.83;;;21.90;99.90;;;;;;5059178;28;20126;-84
2022/06/25 11:31:33;;;;;;;4.05;1.70;;;22.10;99.90;;;;;;5062219;28;20044;-83
2022/06/25 11:34:02;;;;;;;3.38;1.42;;;22.20;99.90;;;;;;5062935;28;20067;-83
2022/06/25 11:36:27;;;;;;;3.88;1.33;;;22.20;99.90;;;;;;5065893;28;20044;-85
2022/06/25 11:38:54;;;;;;;2.45;1.17;;;22.20;99.90;;;;;;5062364;28;20045;-84
2022/06/25 11:41:29;;;;;;;2.72;2.00;;;22.20;99.90;;;;;;5080269;28;20111;-85
2022/06/25 11:43:55;;;;;;;3.05;1.50;;;22.10;99.90;;;;;;5063140;28;20604;-85
2022/06/25 11:46:22;;;;;;;2.22;1.30;;;22.00;99.90;;;;;;5061274;28;20194;-85
2022/06/25 11:48:48;;;;;;;4.97;1.48;;;22.10;99.90;;;;;;5063482;28;20048;-85
2022/06/25 11:51:25;;;;;;;3.80;1.67;;;22.10;99.90;;;;;;5063204;28;20044;-89
2022/06/25 11:53:52;;;;;;;1.90;1.08;;;22.00;99.90;;;;;;5064149;28;20099;-86
2022/06/25 11:56:18;;;;;;;5.95;1.30;;;22.10;99.90;;;;;;5059903;28;20063;-86
2022/06/25 11:58:45;;;;;;;4.20;1.30;;;22.00;99.90;;;;;;5062762;28;20175;-86
2022/06/25 12:01:11;;;;;;;3.80;1.00;;;22.00;99.90;;;;;;5062266;28;20029;-86
2022/06/25 12:03:37;;;;;;;2.95;1.45;;;22.00;99.90;;;;;;5060332;28;20052;-85
2022/06/25 12:06:03;;;;;;;2.80;1.02;;;22.00;99.90;;;;;;5078013;28;20467;-86
2022/06/25 12:08:29;;;;;;;3.92;1.35;;;21.90;99.90;;;;;;5064482;28;20076;-86
2022/06/25 12:10:57;;;;;;;2.97;1.15;;;21.90;99.90;;;;;;5062895;28;20509;-85
2022/06/25 12:13:26;;;;;;;2.30;1.20;;;22.00;99.90;;;;;;5080126;28;20453;-86
2022/06/25 12:16:05;;;;;;;4.00;1.42;;;22.00;99.90;;;;;;5064933;28;20049;-86
2022/06/25 12:18:42;;;;;;;3.42;1.95;;;22.30;99.90;;;;;;5064076;28;20041;-87
2022/06/25 12:21:10;;;;;;;2.55;1.10;;;22.40;99.90;;;;;;5058986;28;20507;-86
2022/06/25 12:23:56;;;;;;;1.85;1.25;;;22.60;99.90;;;;;;5061778;28;20041;-86
2022/06/25 12:26:35;;;;;;;4.03;1.92;;;22.90;99.90;;;;;;5062182;28;20063;-86
2022/06/25 12:29:09;;;;;;;1.85;0.70;;;23.10;99.90;;;;;;5063648;28;20032;-86
2022/06/25 12:31:35;;;;;;;1.98;1.00;;;23.00;99.90;;;;;;5062233;28;20159;-86
2022/06/25 12:34:03;;;;;;;2.33;0.88;;;22.90;99.90;;;;;;5063481;28;20514;-87
2022/06/25 12:36:29;;;;;;;2.92;1.05;;;22.80;99.90;;;;;;5058827;28;20040;-79
2022/06/25 12:38:55;;;;;;;4.88;1.40;;;22.70;99.90;;;;;;5075642;27;20856;-80
2022/06/25 12:41:21;;;;;;;2.72;0.88;;;22.50;99.90;;;;;;5060082;28;20049;-81
2022/06/25 12:43:49;;;;;;;2.95;1.17;;;22.30;99.90;;;;;;5059946;28;20052;-81
2022/06/25 12:46:19;;;;;;;7.65;1.25;;;22.20;99.90;;;;;;5076676;28;20094;-80
2022/06/25 12:48:45;;;;;;;1.73;1.02;;;22.20;99.90;;;;;;5062133;28;20096;-80
2022/06/25 12:51:14;;;;;;;2.38;1.20;;;22.30;99.90;;;;;;5061453;28;20088;-80